الصفحة الرئيسية
METAR-TAF:

METAR-TAF

مطار :

بوزنان, بولندا

دائرة عرض: 52-25N, خط طول: 016-50E, ارتفاع: 86 متر

مراقبة الطقس الحالي

تاريخ ووقت الإصدار 42 دقيقة قبل الساعة 02:00UTC
ريح 2 عقدة من الجنوب/الجنوب الغربي
درجة الحرارة 13°درجة مئوية
الرطوبة 94%
ضغط 1022 hPa
الرؤية 10 كم أو أكثر
الغيوم لا تقل 1500 م ولا وجود لمزنة ركامية السحاب الأسود

METAR: EPPO 180200Z 20002KT CAVOK 13/12 Q1022

زمن: 04:42 (02:42 UTC)

توقعات

تاريخ ووقت الإصدار 3ساعات و 12 دقيقة قبل الساعة 23:30UTC
التوقعات صالحة من18 الساعة 00 UTC إلى 18 الساعة 24 UTC
ريح 3 عقدة من الغرب/الشمال الغربي
الرؤية 10 كم أو أكثر
الغيوم لا تقل 1500 م ولا وجود لمزنة ركامية السحاب الأسود
أصبح
من 18 الساعة 21 UTC إلى 18 الساعة 24 UTC
ريح 10 عقدة من الشرق/الشمال الشرقي

TAF: EPPO 172330Z 1800/1824 29003KT CAVOK BECMG 1821/1824 06010KT

أرصاد الطقس والتوقعات من أكثر من 4000 مطار (تقارير الطقس للمطار METAR والتنبؤ بالطقس بالمطارTAF).

المحطات المتاحة هي النقط الصفراء والحمراء على الخريطة.

حرك المؤشر فوق النقطة لمعرفة اسم المحطة.

ثم انقر لمعرفة أرصاد وتوقعات الطقس.

لتغيير الخارطة: اضغط على الأزرار الخضراء مع رمز الصليب الأسود للتكبير. على الزر الأخضر مع شرطة للتصغير، أو على الأسهم الخضراء للخرائط المجاورة.


METAR-TAF: